createdAt,value
2019-04-20T00:01:46.941Z,4.80
2019-04-20T00:04:20.690Z,4.93
2019-04-20T00:06:50.979Z,4.47
2019-04-20T00:09:24.075Z,4.30
2019-04-20T00:11:59.203Z,4.83
2019-04-20T00:14:24.027Z,5.60
2019-04-20T00:16:50.473Z,5.27
2019-04-20T00:19:26.163Z,4.50
2019-04-20T00:21:58.553Z,5.00
2019-04-20T00:24:41.089Z,5.00
2019-04-20T00:27:32.740Z,4.63
2019-04-20T00:30:00.322Z,4.90
2019-04-20T00:32:19.962Z,5.13
2019-04-20T00:34:45.412Z,5.03
2019-04-20T00:37:14.998Z,4.87
2019-04-20T00:39:44.778Z,5.40
2019-04-20T00:42:17.874Z,5.23
2019-04-20T00:44:54.903Z,5.17
2019-04-20T00:47:30.471Z,5.27
2019-04-20T00:49:59.066Z,5.00
2019-04-20T00:52:31.081Z,5.03
2019-04-20T00:54:49.362Z,5.20
2019-04-20T00:57:30.304Z,5.03
2019-04-20T01:00:11.060Z,5.17
2019-04-20T01:02:34.892Z,4.83
2019-04-20T01:05:10.991Z,5.00
2019-04-20T01:07:39.537Z,4.90
2019-04-20T01:10:04.710Z,5.50
2019-04-20T01:12:36.587Z,5.50
2019-04-20T01:15:09.910Z,6.67
2019-04-20T01:17:37.771Z,6.00
2019-04-20T01:20:08.192Z,5.70
2019-04-20T01:22:44.610Z,5.67
2019-04-20T01:25:16.868Z,5.47
2019-04-20T01:27:59.094Z,5.10
2019-04-20T01:30:20.057Z,5.00
2019-04-20T01:32:55.394Z,4.93
2019-04-20T01:35:31.811Z,4.80
2019-04-20T01:38:00.237Z,4.87
2019-04-20T01:40:13.072Z,4.57
2019-04-20T01:42:42.605Z,5.43
2019-04-20T01:45:19.115Z,5.97
2019-04-20T01:47:47.789Z,5.23
2019-04-20T01:50:19.172Z,5.73
2019-04-20T01:52:56.480Z,5.90
2019-04-20T01:55:44.038Z,5.87
2019-04-20T01:58:25.486Z,6.97
2019-04-20T02:00:46.926Z,5.67
2019-04-20T02:03:38.486Z,6.00
2019-04-20T02:06:16.682Z,5.77
2019-04-20T02:08:44.121Z,6.40
2019-04-20T02:11:20.761Z,6.10
2019-04-20T02:13:49.947Z,6.77
2019-04-20T02:16:25.561Z,6.90
2019-04-20T02:19:06.683Z,6.80
2019-04-20T02:21:36.840Z,6.00
2019-04-20T02:23:53.122Z,6.83
2019-04-20T02:26:18.089Z,6.70
2019-04-20T02:29:12.220Z,7.90
2019-04-20T02:32:13.689Z,7.57
2019-04-20T02:34:39.136Z,6.93
2019-04-20T02:37:26.066Z,7.07
2019-04-20T02:39:51.218Z,7.27
2019-04-20T02:42:26.484Z,7.97
2019-04-20T02:45:01.292Z,7.80
2019-04-20T02:47:30.769Z,6.83
2019-04-20T02:52:28.629Z,6.00
2019-04-20T02:55:02.036Z,6.53
2019-04-20T02:57:33.666Z,5.87
2019-04-20T03:00:10.385Z,5.53
2019-04-20T03:02:14.725Z,5.90
2019-04-20T03:04:37.026Z,6.13
2019-04-20T03:07:11.855Z,5.60
2019-04-20T03:09:44.469Z,5.90
2019-04-20T03:12:24.943Z,6.13
2019-04-20T03:14:45.718Z,6.53
2019-04-20T03:17:21.680Z,6.67
2019-04-20T03:19:46.338Z,7.07
2019-04-20T03:22:35.040Z,7.27
2019-04-20T03:24:54.093Z,6.97
2019-04-20T03:27:25.112Z,6.37
2019-04-20T03:29:56.145Z,6.13
2019-04-20T03:32:57.910Z,6.30
2019-04-20T03:35:17.386Z,6.50
2019-04-20T03:37:37.003Z,6.10
2019-04-20T03:39:56.745Z,6.63
2019-04-20T03:42:14.265Z,6.17
2019-04-20T03:44:52.162Z,6.20
2019-04-20T03:47:26.859Z,6.00
2019-04-20T03:50:06.232Z,5.90
2019-04-20T03:52:44.982Z,5.90
2019-04-20T03:55:16.197Z,6.33
2019-04-20T03:58:01.451Z,6.27
2019-04-20T04:00:42.985Z,5.50
2019-04-20T04:03:41.032Z,5.27
2019-04-20T04:06:16.355Z,5.53
2019-04-20T04:08:39.553Z,5.30
2019-04-20T04:11:20.010Z,5.57
2019-04-20T04:13:35.826Z,5.13
2019-04-20T04:16:08.780Z,5.37
2019-04-20T04:18:40.999Z,5.67
2019-04-20T04:21:12.860Z,5.37
2019-04-20T04:23:54.299Z,5.13
2019-04-20T04:26:26.133Z,5.70
2019-04-20T04:28:53.233Z,5.90
2019-04-20T04:31:31.112Z,5.60
2019-04-20T04:33:59.384Z,6.00
2019-04-20T04:36:27.202Z,5.60
2019-04-20T04:39:05.419Z,6.10
2019-04-20T04:41:31.084Z,6.20
2019-04-20T04:44:00.116Z,5.83
2019-04-20T04:46:14.507Z,6.07
2019-04-20T04:48:46.567Z,5.60
2019-04-20T04:51:22.216Z,6.07
2019-04-20T04:53:55.072Z,5.90
2019-04-20T04:56:19.759Z,5.80
2019-04-20T04:58:46.770Z,5.80
2019-04-20T05:01:21.763Z,5.60
2019-04-20T05:04:10.541Z,5.43
2019-04-20T05:06:31.785Z,5.87
2019-04-20T05:08:53.301Z,5.60
2019-04-20T05:11:19.696Z,5.37
2019-04-20T05:13:57.797Z,5.20
2019-04-20T05:16:40.901Z,5.43
2019-04-20T05:19:13.408Z,5.67
2019-04-20T05:21:47.343Z,5.67
2019-04-20T05:24:22.688Z,4.87
2019-04-20T05:27:05.255Z,5.77
2019-04-20T05:29:15.888Z,5.17
2019-04-20T05:31:46.356Z,5.03
2019-04-20T05:34:30.927Z,5.83
2019-04-20T05:36:57.948Z,5.30
2019-04-20T05:39:32.944Z,6.20
2019-04-20T05:41:56.542Z,6.10
2019-04-20T05:44:39.717Z,5.63
2019-04-20T05:47:09.262Z,5.50
2019-04-20T05:49:44.023Z,5.27
2019-04-20T05:52:18.791Z,5.57
2019-04-20T05:54:39.151Z,4.90
2019-04-20T05:57:14.969Z,5.50
2019-04-20T05:59:44.984Z,5.27
2019-04-20T06:02:09.767Z,5.10
2019-04-20T06:04:53.913Z,5.77
2019-04-20T06:07:15.585Z,5.57
2019-04-20T06:09:42.121Z,6.17
2019-04-20T06:14:47.141Z,6.53
2019-04-20T06:17:32.053Z,6.83
2019-04-20T06:20:11.547Z,7.93
2019-04-20T06:22:50.836Z,7.17
2019-04-20T06:27:52.796Z,6.83
2019-04-20T06:30:13.663Z,8.13
2019-04-20T06:33:16.096Z,8.33
2019-04-20T06:35:54.513Z,7.60
2019-04-20T06:38:26.660Z,8.53
2019-04-20T06:40:58.025Z,7.50
2019-04-20T06:43:04.675Z,7.43
2019-04-20T06:45:51.115Z,7.40
2019-04-20T06:48:13.764Z,7.00
2019-04-20T06:50:38.491Z,7.30
2019-04-20T06:53:28.518Z,8.00
2019-04-20T06:56:05.324Z,7.30
2019-04-20T07:01:04.128Z,7.20
2019-04-20T07:03:42.145Z,6.60
2019-04-20T07:06:22.948Z,6.80
2019-04-20T07:08:55.411Z,7.20
2019-04-20T07:11:04.332Z,6.43
2019-04-20T07:13:26.756Z,7.07
2019-04-20T07:16:13.473Z,7.07
2019-04-20T07:19:03.835Z,7.70
2019-04-20T07:22:02.274Z,6.97
2019-04-20T07:24:28.883Z,7.27
2019-04-20T07:26:55.461Z,6.43
2019-04-20T07:29:26.063Z,6.07
2019-04-20T07:31:49.883Z,5.90
2019-04-20T07:34:29.013Z,6.13
2019-04-20T07:37:19.355Z,5.63
2019-04-20T07:39:29.051Z,5.37
2019-04-20T07:42:01.761Z,5.77
2019-04-20T07:44:35.929Z,4.40
2019-04-20T07:47:08.873Z,5.13
2019-04-20T07:49:32.484Z,5.37
2019-04-20T07:51:44.378Z,4.17
2019-04-20T07:54:40.173Z,4.60
2019-04-20T07:57:00.507Z,5.40
2019-04-20T07:59:26.035Z,5.90
2019-04-20T08:02:15.735Z,5.40
2019-04-20T08:04:42.492Z,4.53
2019-04-20T08:07:05.839Z,5.33
2019-04-20T08:09:42.350Z,4.00
2019-04-20T08:12:25.600Z,4.80
2019-04-20T08:15:04.933Z,4.23
2019-04-20T08:17:30.901Z,4.77
2019-04-20T08:19:50.864Z,4.83
2019-04-20T08:22:27.086Z,5.27
2019-04-20T08:24:51.845Z,4.50
2019-04-20T08:27:16.330Z,4.63
2019-04-20T08:29:58.776Z,4.50
2019-04-20T08:32:51.591Z,4.10
2019-04-20T08:35:32.127Z,4.50
2019-04-20T08:38:22.162Z,4.87
2019-04-20T08:40:34.498Z,4.80
2019-04-20T08:43:13.136Z,4.87
2019-04-20T08:45:34.641Z,5.00
2019-04-20T08:48:14.071Z,6.10
2019-04-20T08:50:36.285Z,5.67
2019-04-20T08:53:15.984Z,5.40
2019-04-20T08:55:33.492Z,5.37
2019-04-20T08:57:46.797Z,5.27
2019-04-20T09:00:23.745Z,5.40
2019-04-20T09:02:51.669Z,5.03
2019-04-20T09:05:32.942Z,5.00
2019-04-20T09:08:00.100Z,5.43
2019-04-20T09:10:46.280Z,5.00
2019-04-20T09:13:02.366Z,5.20
2019-04-20T09:15:21.403Z,5.10
2019-04-20T09:18:04.990Z,5.23
2019-04-20T09:20:46.221Z,5.00
2019-04-20T09:23:21.264Z,4.73
2019-04-20T09:28:18.744Z,4.90
2019-04-20T09:30:55.884Z,4.53
2019-04-20T09:33:43.143Z,4.30
2019-04-20T09:36:16.639Z,4.77
2019-04-20T09:39:00.039Z,4.00
2019-04-20T09:41:40.933Z,4.27
2019-04-20T09:43:51.127Z,4.97
2019-04-20T09:46:22.158Z,4.00
2019-04-20T09:48:56.086Z,5.07
2019-04-20T09:51:40.259Z,4.60
2019-04-20T09:54:04.318Z,4.30
2019-04-20T09:56:35.711Z,4.57
2019-04-20T09:59:13.791Z,3.70
2019-04-20T10:01:33.963Z,4.93
2019-04-20T10:03:55.110Z,4.53
2019-04-20T10:06:27.286Z,4.70
2019-04-20T10:08:58.527Z,5.00
2019-04-20T10:11:25.512Z,3.97
2019-04-20T10:13:54.492Z,4.10
2019-04-20T10:16:23.845Z,4.13
2019-04-20T10:18:54.942Z,4.40
2019-04-20T10:21:23.655Z,4.73
2019-04-20T10:23:52.602Z,4.37
2019-04-20T10:26:22.663Z,4.17
2019-04-20T10:28:51.893Z,4.20
2019-04-20T10:31:22.279Z,3.93
2019-04-20T10:33:51.476Z,4.03
2019-04-20T10:36:30.829Z,3.67
2019-04-20T10:39:00.319Z,3.57
2019-04-20T10:41:37.997Z,3.63
2019-04-20T10:44:00.754Z,3.47
2019-04-20T10:46:31.034Z,4.40
2019-04-20T10:49:03.820Z,4.03
2019-04-20T10:51:31.458Z,3.53
2019-04-20T10:54:00.522Z,3.70
2019-04-20T10:56:29.596Z,3.63
2019-04-20T10:58:58.560Z,3.30
2019-04-20T11:01:27.528Z,3.10
2019-04-20T11:03:56.592Z,3.40
2019-04-20T11:06:26.791Z,3.30
2019-04-20T11:08:56.576Z,3.13
2019-04-20T11:11:28.674Z,3.30
2019-04-20T11:13:59.903Z,3.67
2019-04-20T11:16:26.802Z,3.30
2019-04-20T11:18:55.788Z,2.90
2019-04-20T11:21:25.029Z,3.17
2019-04-20T11:23:56.253Z,3.03
2019-04-20T11:26:26.382Z,3.30
2019-04-20T11:28:55.853Z,3.17
2019-04-20T11:31:35.616Z,2.93
2019-04-20T11:33:56.716Z,2.80
2019-04-20T11:36:25.613Z,2.83
2019-04-20T11:38:54.563Z,3.20
2019-04-20T11:41:27.661Z,3.00
2019-04-20T11:43:55.640Z,2.80
2019-04-20T11:46:24.950Z,3.40
2019-04-20T11:48:55.303Z,3.90
2019-04-20T11:51:25.444Z,3.97
2019-04-20T11:53:54.453Z,3.63
2019-04-20T11:56:26.716Z,3.70
2019-04-20T11:58:54.905Z,3.20
2019-04-20T12:01:49.396Z,3.30
2019-04-20T12:04:29.485Z,3.60
2019-04-20T12:06:46.599Z,3.40
2019-04-20T12:09:16.948Z,3.90
2019-04-20T12:12:00.765Z,2.97
2019-04-20T12:14:16.653Z,3.50
2019-04-20T12:16:45.877Z,3.63
2019-04-20T12:19:14.804Z,3.40
2019-04-20T12:21:43.695Z,3.90
2019-04-20T12:24:12.583Z,4.07
2019-04-20T12:26:42.678Z,3.73
2019-04-20T12:29:11.982Z,3.97
2019-04-20T12:31:44.304Z,3.27
2019-04-20T12:34:12.708Z,3.23
2019-04-20T12:36:42.801Z,3.20
2019-04-20T12:39:13.217Z,3.33
2019-04-20T12:41:50.017Z,3.77
2019-04-20T12:44:14.185Z,2.90
2019-04-20T12:46:43.708Z,3.37
2019-04-20T12:49:13.688Z,3.20
2019-04-20T12:51:50.675Z,3.00
2019-04-20T12:54:14.507Z,3.07
2019-04-20T12:56:44.666Z,2.70
2019-04-20T12:59:13.856Z,3.30
2019-04-20T13:01:43.734Z,2.97
2019-04-20T13:04:14.309Z,2.77
2019-04-20T13:06:44.737Z,2.87
2019-04-20T13:09:14.569Z,2.80
2019-04-20T13:11:56.633Z,2.80
2019-04-20T13:14:38.600Z,2.77
2019-04-20T13:17:08.360Z,3.60
2019-04-20T13:19:37.521Z,2.97
2019-04-20T13:22:07.356Z,3.20
2019-04-20T13:24:36.989Z,2.60
2019-04-20T13:27:07.052Z,3.13
2019-04-20T13:29:38.105Z,2.73
2019-04-20T13:32:07.689Z,2.67
2019-04-20T13:34:36.629Z,2.37
2019-04-20T13:37:06.396Z,2.33
2019-04-20T13:39:35.368Z,2.30
2019-04-20T13:42:12.246Z,2.37
2019-04-20T13:44:35.018Z,2.60
2019-04-20T13:47:05.090Z,2.00
2019-04-20T13:49:34.197Z,2.10
2019-04-20T13:52:04.388Z,2.63
2019-04-20T13:54:33.684Z,2.13
2019-04-20T13:57:04.768Z,2.10
2019-04-20T13:59:39.943Z,2.23
2019-04-20T14:02:10.881Z,2.30
2019-04-20T14:04:42.565Z,2.00
2019-04-20T14:07:15.015Z,2.13
2019-04-20T14:09:43.556Z,2.53
2019-04-20T14:12:22.243Z,2.17
2019-04-20T14:14:43.388Z,2.17
2019-04-20T14:17:12.987Z,2.80
2019-04-20T14:19:43.134Z,2.40
2019-04-20T14:22:13.202Z,2.50
2019-04-20T14:24:42.704Z,2.67
2019-04-20T14:27:13.013Z,2.57
2019-04-20T14:29:43.212Z,2.73
2019-04-20T14:32:12.226Z,2.63
2019-04-20T14:34:41.249Z,2.60
2019-04-20T14:37:11.036Z,3.10
2019-04-20T14:39:40.549Z,2.63
2019-04-20T14:42:09.979Z,2.70
2019-04-20T14:44:40.090Z,2.43
2019-04-20T14:47:09.795Z,2.60
2019-04-20T14:49:38.826Z,2.00
2019-04-20T14:52:08.218Z,2.50
2019-04-20T14:54:37.458Z,2.47
2019-04-20T14:57:07.625Z,2.33
2019-04-20T14:59:38.315Z,2.63
2019-04-20T15:02:08.915Z,2.50
2019-04-20T15:04:39.039Z,2.30
2019-04-20T15:07:08.767Z,2.57
2019-04-20T15:09:39.381Z,2.43
2019-04-20T15:12:08.808Z,2.37
2019-04-20T15:14:38.668Z,2.40
2019-04-20T15:17:10.801Z,2.40
2019-04-20T15:19:41.469Z,2.23
2019-04-20T15:22:29.604Z,2.40
2019-04-20T15:24:59.995Z,2.37
2019-04-20T15:27:30.218Z,2.53
2019-04-20T15:30:00.268Z,2.30
2019-04-20T15:32:29.278Z,2.33
2019-04-20T15:34:58.165Z,2.10
2019-04-20T15:37:27.180Z,2.13
2019-04-20T15:39:57.174Z,2.37
2019-04-20T15:42:27.505Z,2.20
2019-04-20T15:44:57.687Z,2.90
2019-04-20T15:47:27.902Z,2.87
2019-04-20T15:49:58.073Z,2.00
2019-04-20T15:52:36.232Z,2.47
2019-04-20T15:55:01.724Z,2.50
2019-04-20T15:57:31.297Z,2.20
2019-04-20T16:00:00.377Z,2.27
2019-04-20T16:02:47.333Z,2.40
2019-04-20T16:05:28.171Z,2.50
2019-04-20T16:08:01.959Z,2.40
2019-04-20T16:10:30.732Z,2.10
2019-04-20T16:13:11.801Z,2.40
2019-04-20T16:15:31.644Z,2.17
2019-04-20T16:18:00.944Z,2.20
2019-04-20T16:20:43.641Z,2.13
2019-04-20T16:23:02.792Z,2.23
2019-04-20T16:25:33.532Z,2.57
2019-04-20T16:28:03.589Z,2.20
2019-04-20T16:30:33.806Z,2.67
2019-04-20T16:33:02.856Z,2.30
2019-04-20T16:35:32.215Z,2.30
2019-04-20T16:38:02.447Z,2.90
2019-04-20T16:40:31.584Z,2.33
2019-04-20T16:43:00.647Z,2.50
2019-04-20T16:45:29.659Z,2.47
2019-04-20T16:48:00.466Z,2.47
2019-04-20T16:50:29.374Z,2.10
2019-04-20T16:52:59.087Z,2.53
2019-04-20T16:55:28.469Z,2.50
2019-04-20T16:57:57.575Z,2.87
2019-04-20T17:00:27.515Z,2.50
2019-04-20T17:02:56.692Z,2.50
2019-04-20T17:05:25.875Z,2.20
2019-04-20T17:07:57.400Z,2.53
2019-04-20T17:10:26.620Z,2.37
2019-04-20T17:12:55.724Z,2.40
2019-04-20T17:15:25.567Z,2.40
2019-04-20T17:17:56.732Z,2.93
2019-04-20T17:20:27.032Z,2.67
2019-04-20T17:22:56.285Z,2.27
2019-04-20T17:25:25.909Z,2.07
2019-04-20T17:28:08.840Z,2.07
2019-04-20T17:30:52.780Z,2.00
2019-04-20T17:33:47.530Z,2.40
2019-04-20T17:36:14.525Z,2.87
2019-04-20T17:38:43.437Z,2.70
2019-04-20T17:41:22.434Z,2.43
2019-04-20T17:43:57.739Z,2.33
2019-04-20T17:46:23.679Z,2.40
2019-04-20T17:48:59.118Z,2.30
2019-04-20T17:51:34.624Z,2.50
2019-04-20T17:53:54.016Z,2.13
2019-04-20T17:56:17.337Z,2.40
2019-04-20T17:58:48.043Z,2.40
2019-04-20T18:01:32.827Z,2.47
2019-04-20T18:04:24.468Z,2.60
2019-04-20T18:06:39.488Z,2.17
2019-04-20T18:09:07.022Z,2.60
2019-04-20T18:11:27.472Z,2.70
2019-04-20T18:14:04.276Z,2.67
2019-04-20T18:16:50.875Z,2.43
2019-04-20T18:19:17.483Z,2.07
2019-04-20T18:21:47.633Z,2.23
2019-04-20T18:24:41.247Z,2.37
2019-04-20T18:27:03.102Z,2.23
2019-04-20T18:29:36.857Z,2.40
2019-04-20T18:31:53.359Z,2.27
2019-04-20T18:34:29.108Z,2.40
2019-04-20T18:37:00.628Z,2.80
2019-04-20T18:39:40.038Z,2.77
2019-04-20T18:42:10.145Z,2.70
2019-04-20T18:44:46.114Z,2.40
2019-04-20T18:47:23.675Z,2.70
2019-04-20T18:49:41.925Z,3.17
2019-04-20T18:52:02.137Z,2.60
2019-04-20T18:54:35.270Z,2.57
2019-04-20T18:57:01.767Z,3.00
2019-04-20T18:59:39.985Z,2.63
2019-04-20T19:02:06.796Z,2.77
2019-04-20T19:04:33.135Z,2.33
2019-04-20T19:07:03.637Z,2.50
2019-04-20T19:09:34.656Z,2.83
2019-04-20T19:12:09.084Z,2.33
2019-04-20T19:15:03.418Z,2.40
2019-04-20T19:17:41.966Z,2.33
2019-04-20T19:20:03.251Z,2.87
2019-04-20T19:22:32.182Z,2.90
2019-04-20T19:25:03.348Z,2.90
2019-04-20T19:27:40.980Z,2.80
2019-04-20T19:30:14.884Z,2.97
2019-04-20T19:32:46.377Z,2.50
2019-04-20T19:35:24.400Z,2.90
2019-04-20T19:37:50.287Z,2.67
2019-04-20T19:40:18.219Z,2.40
2019-04-20T19:42:58.703Z,2.90
2019-04-20T19:45:39.849Z,2.77
2019-04-20T19:47:54.748Z,3.07
2019-04-20T19:50:35.298Z,2.57
2019-04-20T19:53:12.524Z,2.70
2019-04-20T19:55:27.369Z,2.90
2019-04-20T19:57:58.537Z,3.10
2019-04-20T20:00:16.817Z,3.00
2019-04-20T20:02:47.772Z,2.80
2019-04-20T20:05:19.201Z,2.70
2019-04-20T20:07:52.518Z,2.73
2019-04-20T20:10:21.420Z,2.77
2019-04-20T20:12:54.812Z,2.57
2019-04-20T20:15:26.106Z,2.80
2019-04-20T20:18:12.401Z,3.10
2019-04-20T20:20:41.160Z,3.37
2019-04-20T20:22:54.874Z,2.93
2019-04-20T20:25:24.586Z,2.50
2019-04-20T20:27:58.461Z,2.93
2019-04-20T20:30:33.188Z,2.67
2019-04-20T20:33:11.523Z,2.97
2019-04-20T20:35:28.730Z,2.93
2019-04-20T20:37:59.486Z,3.03
2019-04-20T20:40:32.839Z,2.63
2019-04-20T20:43:07.318Z,2.90
2019-04-20T20:45:33.598Z,3.43
2019-04-20T20:48:18.800Z,2.90
2019-04-20T20:50:50.663Z,3.20
2019-04-20T20:53:10.213Z,3.00
2019-04-20T20:55:40.227Z,3.00
2019-04-20T20:58:08.536Z,2.97
2019-04-20T21:00:42.895Z,2.63
2019-04-20T21:03:07.518Z,2.47
2019-04-20T21:05:33.582Z,2.67
2019-04-20T21:08:03.782Z,2.97
2019-04-20T21:10:37.533Z,2.90
2019-04-20T21:13:07.110Z,2.90
2019-04-20T21:15:35.376Z,2.97
2019-04-20T21:18:29.325Z,3.17
2019-04-20T21:20:53.880Z,3.00
2019-04-20T21:23:18.445Z,3.07
2019-04-20T21:25:47.558Z,2.93
2019-04-20T21:28:13.079Z,3.07
2019-04-20T21:30:45.132Z,2.90
2019-04-20T21:33:13.234Z,2.97
2019-04-20T21:35:48.562Z,3.23
2019-04-20T21:38:17.181Z,2.80
2019-04-20T21:40:49.230Z,2.77
2019-04-20T21:43:20.702Z,3.63
2019-04-20T21:45:52.454Z,3.20
2019-04-20T21:48:38.020Z,3.47
2019-04-20T21:51:05.873Z,3.30
2019-04-20T21:53:25.075Z,3.13
2019-04-20T21:55:50.194Z,2.87
2019-04-20T21:58:25.853Z,3.47
2019-04-20T22:01:05.118Z,3.50
2019-04-20T22:03:24.792Z,3.60
2019-04-20T22:06:04.766Z,3.30
2019-04-20T22:08:34.622Z,3.60
2019-04-20T22:11:04.007Z,3.57
2019-04-20T22:13:38.032Z,3.70
2019-04-20T22:16:10.003Z,3.40
2019-04-20T22:18:48.517Z,3.70
2019-04-20T22:21:19.683Z,3.70
2019-04-20T22:23:56.648Z,3.50
2019-04-20T22:26:17.410Z,3.50
2019-04-20T22:28:38.317Z,3.40
2019-04-20T22:31:08.236Z,3.27
2019-04-20T22:33:41.322Z,3.27
2019-04-20T22:36:11.386Z,3.33
2019-04-20T22:39:01.287Z,3.50
2019-04-20T22:41:32.317Z,3.13
2019-04-20T22:44:08.604Z,3.30
2019-04-20T22:46:35.575Z,3.17
2019-04-20T22:49:22.241Z,3.33
2019-04-20T22:51:47.547Z,3.37
2019-04-20T22:54:23.314Z,3.10
2019-04-20T22:56:49.999Z,3.23
2019-04-20T22:59:12.967Z,3.23
2019-04-20T23:01:45.846Z,3.23
2019-04-20T23:04:08.771Z,3.70
2019-04-20T23:06:43.866Z,3.30
2019-04-20T23:09:11.702Z,3.80
2019-04-20T23:11:40.404Z,3.77
2019-04-20T23:14:10.815Z,3.37
2019-04-20T23:16:43.977Z,3.63
2019-04-20T23:19:11.899Z,3.40
2019-04-20T23:21:48.644Z,3.20
2019-04-20T23:24:13.605Z,3.60
2019-04-20T23:26:44.267Z,3.70
2019-04-20T23:29:13.363Z,2.90
2019-04-20T23:31:49.383Z,4.27
2019-04-20T23:34:20.119Z,2.77
2019-04-20T23:36:46.856Z,3.30
2019-04-20T23:39:14.862Z,3.80
2019-04-20T23:41:53.592Z,3.27
2019-04-20T23:44:18.855Z,3.93
2019-04-20T23:47:10.915Z,3.60
2019-04-20T23:49:54.334Z,4.00
2019-04-20T23:52:32.289Z,4.50
2019-04-20T23:54:42.281Z,3.43
2019-04-20T23:57:08.636Z,3.63
2019-04-20T23:59:41.836Z,3.63
